createdAt,value
2018-01-23T00:02:13.261Z,282.10
2018-01-23T00:04:41.526Z,261.80
2018-01-23T00:07:08.970Z,270.43
2018-01-23T00:09:36.426Z,287.10
2018-01-23T00:12:03.886Z,272.00
2018-01-23T00:14:31.378Z,300.53
2018-01-23T00:16:59.580Z,270.00
2018-01-23T00:19:27.055Z,277.57
2018-01-23T00:21:54.500Z,255.47
2018-01-23T00:24:21.971Z,282.10
2018-01-23T00:26:50.191Z,298.57
2018-01-23T00:29:17.671Z,313.77
2018-01-23T00:31:45.114Z,280.20
2018-01-23T00:34:12.562Z,312.03
2018-01-23T00:36:40.031Z,290.83
2018-01-23T00:39:07.511Z,314.97
2018-01-23T00:41:34.967Z,272.93
2018-01-23T00:44:02.433Z,209.20
2018-01-23T00:46:29.935Z,275.63
2018-01-23T00:48:57.344Z,261.63
2018-01-23T00:51:24.791Z,227.00
2018-01-23T00:53:52.259Z,248.23
2018-01-23T00:56:19.763Z,213.47
2018-01-23T00:58:47.973Z,247.00
2018-01-23T01:01:15.434Z,186.80
2018-01-23T01:03:42.904Z,239.73
2018-01-23T01:06:10.397Z,294.43
2018-01-23T01:08:37.830Z,270.97
2018-01-23T01:11:05.270Z,267.07
2018-01-23T01:13:32.758Z,268.03
2018-01-23T01:16:00.247Z,283.23
2018-01-23T01:18:28.455Z,275.93
2018-01-23T01:20:55.915Z,231.23
2018-01-23T01:23:23.403Z,271.53
2018-01-23T01:25:51.291Z,283.87
2018-01-23T01:28:19.514Z,262.83
2018-01-23T01:30:47.028Z,249.43
2018-01-23T01:41:47.510Z,228.53
2018-01-23T01:44:15.726Z,230.93
2018-01-23T01:46:43.283Z,250.03
2018-01-23T01:49:10.750Z,251.63
2018-01-23T01:51:38.210Z,241.20
2018-01-23T01:54:05.675Z,290.40
2018-01-23T01:56:33.122Z,286.33
2018-01-23T01:59:00.577Z,257.47
2018-01-23T02:01:28.023Z,262.40
2018-01-23T02:03:55.482Z,269.23
2018-01-23T02:06:22.958Z,246.90
2018-01-23T02:08:50.399Z,230.80
2018-01-23T02:11:17.861Z,256.50
2018-01-23T02:13:45.326Z,250.13
2018-01-23T02:16:12.791Z,247.70
2018-01-23T02:18:40.242Z,247.23
2018-01-23T02:21:07.705Z,235.07
2018-01-23T02:23:35.162Z,269.57
2018-01-23T02:26:02.602Z,236.93
2018-01-23T02:28:30.070Z,259.43
2018-01-23T02:30:57.538Z,289.07
2018-01-23T02:33:25.002Z,225.03
2018-01-23T02:35:52.462Z,237.50
2018-01-23T02:38:19.910Z,224.33
2018-01-23T02:40:47.367Z,231.73
2018-01-23T02:43:14.814Z,223.27
2018-01-23T02:45:42.273Z,171.67
2018-01-23T02:48:09.722Z,187.90
2018-01-23T02:50:37.183Z,196.90
2018-01-23T02:55:54.890Z,208.60
2018-01-23T02:58:22.367Z,206.77
2018-01-23T03:00:49.863Z,226.20
2018-01-23T03:03:17.342Z,224.97
2018-01-23T03:05:45.566Z,210.77
2018-01-23T03:08:13.062Z,193.60
2018-01-23T03:10:40.522Z,213.17
2018-01-23T03:13:08.009Z,248.93
2018-01-23T03:15:35.494Z,206.57
2018-01-23T03:18:02.982Z,230.87
2018-01-23T03:20:30.466Z,212.53
2018-01-23T03:22:57.994Z,227.67
2018-01-23T03:25:25.446Z,227.10
2018-01-23T03:27:52.940Z,217.00
2018-01-23T03:30:21.164Z,245.07
2018-01-23T03:32:48.668Z,244.80
2018-01-23T03:35:16.099Z,219.10
2018-01-23T03:37:43.569Z,218.97
2018-01-23T03:40:11.035Z,241.80
2018-01-23T03:42:39.250Z,218.27
2018-01-23T03:45:06.691Z,228.27
2018-01-23T03:47:34.171Z,214.73
2018-01-23T03:50:01.619Z,230.93
2018-01-23T03:52:29.082Z,242.03
2018-01-23T03:54:56.543Z,220.83
2018-01-23T03:57:24.026Z,238.00
2018-01-23T03:59:51.491Z,251.83
2018-01-23T04:02:18.942Z,221.67
2018-01-23T04:04:46.378Z,243.33
2018-01-23T04:07:13.845Z,196.50
2018-01-23T04:09:41.287Z,244.57
2018-01-23T04:12:08.754Z,239.33
2018-01-23T04:14:36.206Z,240.47
2018-01-23T04:17:04.415Z,202.87
2018-01-23T04:19:31.878Z,195.40
2018-01-23T04:21:59.319Z,174.70
2018-01-23T04:24:26.780Z,210.00
2018-01-23T04:26:54.222Z,216.77
2018-01-23T04:29:21.681Z,256.67
2018-01-23T04:31:49.142Z,181.93
2018-01-23T04:34:16.590Z,233.40
2018-01-23T04:36:44.038Z,219.20
2018-01-23T04:39:11.502Z,258.93
2018-01-23T04:41:38.966Z,238.90
2018-01-23T04:44:06.421Z,234.93
2018-01-23T04:46:33.873Z,248.27
2018-01-23T04:49:01.346Z,234.00
2018-01-23T04:51:28.791Z,243.70
2018-01-23T04:53:56.242Z,180.23
2018-01-23T04:56:23.708Z,199.83
2018-01-23T04:58:51.175Z,237.83
2018-01-23T05:01:18.634Z,190.27
2018-01-23T05:03:46.351Z,225.67
2018-01-23T05:06:13.805Z,196.43
2018-01-23T05:08:41.274Z,234.67
2018-01-23T05:11:08.726Z,226.27
2018-01-23T05:13:36.193Z,226.73
2018-01-23T05:16:03.656Z,212.20
2018-01-23T05:18:31.134Z,210.97
2018-01-23T05:20:58.582Z,219.60
2018-01-23T05:23:26.034Z,250.33
2018-01-23T05:25:53.489Z,234.27
2018-01-23T05:28:20.954Z,236.63
2018-01-23T05:30:48.406Z,249.13
2018-01-23T05:33:15.875Z,230.70
2018-01-23T05:35:43.334Z,207.90
2018-01-23T05:38:10.811Z,244.93
2018-01-23T05:40:39.038Z,187.67
2018-01-23T05:43:06.518Z,231.70
2018-01-23T05:45:33.984Z,229.73
2018-01-23T05:48:01.452Z,220.53
2018-01-23T05:50:29.693Z,211.50
2018-01-23T05:52:57.146Z,164.10
2018-01-23T05:55:24.590Z,184.07
2018-01-23T05:57:52.059Z,185.33
2018-01-23T06:00:19.503Z,209.83
2018-01-23T06:02:46.998Z,187.67
2018-01-23T06:05:14.438Z,188.90
2018-01-23T06:07:41.911Z,180.97
2018-01-23T06:10:09.379Z,161.37
2018-01-23T06:12:37.661Z,172.00
2018-01-23T06:15:05.164Z,176.87
2018-01-23T06:17:32.600Z,181.53
2018-01-23T06:20:00.049Z,150.00
2018-01-23T06:22:28.260Z,150.63
2018-01-23T06:24:55.726Z,150.07
2018-01-23T06:27:23.182Z,171.17
2018-01-23T06:29:50.650Z,187.70
2018-01-23T06:32:18.099Z,210.57
2018-01-23T06:34:45.566Z,193.27
2018-01-23T06:37:13.058Z,194.57
2018-01-23T06:39:40.515Z,201.70
2018-01-23T06:42:07.994Z,191.67
2018-01-23T06:44:35.430Z,185.17
2018-01-23T06:47:02.895Z,201.33
2018-01-23T06:49:30.355Z,194.30
2018-01-23T06:51:57.798Z,184.50
2018-01-23T06:54:25.307Z,198.63
2018-01-23T06:56:52.767Z,171.13
2018-01-23T06:59:20.231Z,174.00
2018-01-23T07:01:47.714Z,158.33
2018-01-23T07:04:15.176Z,179.53
2018-01-23T07:06:43.382Z,179.27
2018-01-23T07:09:10.892Z,164.00
2018-01-23T07:11:38.298Z,182.07
2018-01-23T07:14:05.798Z,194.57
2018-01-23T07:16:33.255Z,155.80
2018-01-23T07:19:00.710Z,194.53
2018-01-23T07:21:28.190Z,200.83
2018-01-23T07:23:56.401Z,197.63
2018-01-23T07:26:23.907Z,197.50
2018-01-23T07:28:51.294Z,177.37
2018-01-23T07:31:18.776Z,208.13
2018-01-23T07:33:46.227Z,230.67
2018-01-23T07:36:13.687Z,229.80
2018-01-23T07:38:41.366Z,152.00
2018-01-23T07:41:08.806Z,194.13
2018-01-23T07:43:36.274Z,213.97
2018-01-23T07:46:03.751Z,226.90
2018-01-23T07:48:31.212Z,237.67
2018-01-23T07:50:58.670Z,232.93
2018-01-23T07:53:26.134Z,224.77
2018-01-23T07:55:53.586Z,259.93
2018-01-23T08:00:54.844Z,241.97
2018-01-23T08:03:22.403Z,228.27
2018-01-23T08:05:49.856Z,263.10
2018-01-23T08:08:17.303Z,258.30
2018-01-23T08:10:44.779Z,289.73
2018-01-23T08:13:12.254Z,246.40
2018-01-23T08:15:39.708Z,261.37
2018-01-23T08:18:07.919Z,266.67
2018-01-23T08:20:35.399Z,222.57
2018-01-23T08:23:02.846Z,238.27
2018-01-23T08:25:30.296Z,307.67
2018-01-23T08:27:57.751Z,226.83
2018-01-23T08:30:25.219Z,227.07
2018-01-23T08:32:52.660Z,223.23
2018-01-23T08:35:20.098Z,253.40
2018-01-23T08:37:47.594Z,207.50
2018-01-23T08:40:15.032Z,228.33
2018-01-23T08:42:42.475Z,221.00
2018-01-23T08:45:09.944Z,253.43
2018-01-23T08:47:37.403Z,196.70
2018-01-23T08:50:04.859Z,185.70
2018-01-23T08:52:32.314Z,186.13
2018-01-23T08:54:59.774Z,225.17
2018-01-23T08:57:27.214Z,217.47
2018-01-23T08:59:54.763Z,194.73
2018-01-23T09:02:22.215Z,209.97
2018-01-23T09:04:50.422Z,165.87
2018-01-23T09:07:18.000Z,216.83
2018-01-23T09:09:45.445Z,182.43
2018-01-23T09:12:12.890Z,170.83
2018-01-23T09:14:40.361Z,188.83
2018-01-23T09:17:07.810Z,176.30
2018-01-23T09:19:35.270Z,178.67
2018-01-23T09:22:02.716Z,185.40
2018-01-23T09:24:30.195Z,186.50
2018-01-23T09:26:57.637Z,170.67
2018-01-23T09:29:25.094Z,156.67
2018-01-23T09:31:52.568Z,174.93
2018-01-23T09:34:20.016Z,180.90
2018-01-23T09:36:47.459Z,183.03
2018-01-23T09:39:14.930Z,154.33
2018-01-23T09:41:42.395Z,178.57
2018-01-23T09:44:09.867Z,152.60
2018-01-23T09:46:37.326Z,168.37
2018-01-23T09:49:04.880Z,172.33
2018-01-23T09:51:32.324Z,160.07
2018-01-23T09:53:59.775Z,190.63
2018-01-23T09:56:27.234Z,148.43
2018-01-23T09:58:54.692Z,145.57
2018-01-23T10:01:22.150Z,133.07
2018-01-23T10:03:49.593Z,143.90
2018-01-23T10:06:17.046Z,143.00
2018-01-23T10:08:44.509Z,111.83
2018-01-23T10:11:11.972Z,114.33
2018-01-23T10:13:39.432Z,126.03
2018-01-23T10:16:06.900Z,110.90
2018-01-23T10:18:34.347Z,101.90
2018-01-23T10:21:01.807Z,91.07
2018-01-23T10:23:30.039Z,97.07
2018-01-23T10:25:57.487Z,107.73
2018-01-23T10:28:24.978Z,99.07
2018-01-23T10:30:52.426Z,100.57
2018-01-23T10:33:19.900Z,109.90
2018-01-23T10:35:48.106Z,101.23
2018-01-23T10:38:15.575Z,104.53
2018-01-23T10:40:43.811Z,86.43
2018-01-23T10:43:11.299Z,99.97
2018-01-23T10:45:38.742Z,97.10
2018-01-23T10:48:06.233Z,99.07
2018-01-23T10:50:33.700Z,80.70
2018-01-23T10:53:01.906Z,96.97
2018-01-23T10:55:29.376Z,96.97
2018-01-23T10:57:56.844Z,83.20
2018-01-23T11:00:24.576Z,91.97
2018-01-23T11:02:52.058Z,85.50
2018-01-23T11:05:19.512Z,94.10
2018-01-23T11:07:46.959Z,83.83
2018-01-23T11:10:14.432Z,85.20
2018-01-23T11:12:41.889Z,95.40
2018-01-23T11:15:10.118Z,104.53
2018-01-23T11:17:37.577Z,102.37
2018-01-23T11:20:05.047Z,97.03
2018-01-23T11:22:32.512Z,99.37
2018-01-23T11:24:59.964Z,103.47
2018-01-23T11:27:27.428Z,103.70
2018-01-23T11:29:54.897Z,114.00
2018-01-23T11:32:22.370Z,94.27
2018-01-23T11:34:49.791Z,97.93
2018-01-23T11:37:17.352Z,97.77
2018-01-23T11:39:44.813Z,112.87
2018-01-23T11:42:12.285Z,108.53
2018-01-23T11:44:39.742Z,114.03
2018-01-23T11:47:07.226Z,88.23
2018-01-23T11:49:34.684Z,103.87
2018-01-23T11:52:02.124Z,95.97
2018-01-23T11:54:29.605Z,94.27
2018-01-23T11:56:57.859Z,88.27
2018-01-23T11:59:25.331Z,85.30
2018-01-23T12:01:52.783Z,81.40
2018-01-23T12:04:20.230Z,90.47
2018-01-23T12:06:47.682Z,88.87
2018-01-23T12:09:15.137Z,94.93
2018-01-23T12:11:42.608Z,90.30
2018-01-23T12:14:10.057Z,71.07
2018-01-23T12:16:37.501Z,80.07
2018-01-23T12:19:04.963Z,68.93
2018-01-23T12:21:32.431Z,69.73
2018-01-23T12:24:00.010Z,81.53
2018-01-23T12:26:27.450Z,57.90
2018-01-23T12:28:54.879Z,60.73
2018-01-23T12:31:22.382Z,66.27
2018-01-23T12:33:50.658Z,54.37
2018-01-23T12:36:18.904Z,56.33
2018-01-23T12:38:46.358Z,59.00
2018-01-23T12:41:13.831Z,55.03
2018-01-23T12:43:41.289Z,54.37
2018-01-23T12:46:08.766Z,52.47
2018-01-23T12:48:36.206Z,50.00
2018-01-23T12:51:03.647Z,50.70
2018-01-23T12:53:32.623Z,51.53
2018-01-23T12:56:00.110Z,50.50
2018-01-23T12:58:27.562Z,54.60
2018-01-23T13:00:55.032Z,51.07
2018-01-23T13:03:22.488Z,43.07
2018-01-23T13:05:50.318Z,47.20
2018-01-23T13:08:17.779Z,45.63
2018-01-23T13:10:45.237Z,45.00
2018-01-23T13:13:12.773Z,49.07
2018-01-23T13:15:40.236Z,42.97
2018-01-23T13:18:07.686Z,42.03
2018-01-23T13:20:35.127Z,38.57
2018-01-23T13:23:03.540Z,43.90
2018-01-23T13:25:30.981Z,44.43
2018-01-23T13:27:58.468Z,44.93
2018-01-23T13:30:25.952Z,40.73
2018-01-23T13:32:54.167Z,36.23
2018-01-23T13:35:21.690Z,40.20
2018-01-23T13:37:49.134Z,38.53
2018-01-23T13:40:16.581Z,40.40
2018-01-23T13:42:44.021Z,33.73
2018-01-23T13:45:11.482Z,36.17
2018-01-23T13:47:38.954Z,39.23
2018-01-23T13:50:06.400Z,45.63
2018-01-23T13:52:33.881Z,38.07
2018-01-23T13:55:02.112Z,42.23
2018-01-23T13:57:29.591Z,38.23
2018-01-23T13:59:57.038Z,33.20
2018-01-23T14:02:24.483Z,32.73
2018-01-23T14:04:51.957Z,37.63
2018-01-23T14:07:19.413Z,36.27
2018-01-23T14:09:46.851Z,36.83
2018-01-23T14:12:14.336Z,42.77
2018-01-23T14:14:41.776Z,30.43
2018-01-23T14:17:09.239Z,35.13
2018-01-23T14:19:36.702Z,31.17
2018-01-23T14:22:04.170Z,40.33
2018-01-23T14:24:31.643Z,32.27
2018-01-23T14:26:59.091Z,45.63
2018-01-23T14:29:26.534Z,48.57
2018-01-23T14:31:53.993Z,37.83
2018-01-23T14:34:21.462Z,31.10
2018-01-23T14:36:48.914Z,40.00
2018-01-23T14:39:17.157Z,36.10
2018-01-23T14:41:44.640Z,37.53
2018-01-23T14:44:12.097Z,40.73
2018-01-23T14:46:40.547Z,38.93
2018-01-23T14:49:07.994Z,33.93
2018-01-23T14:51:35.437Z,38.23
2018-01-23T14:54:02.897Z,36.87
2018-01-23T14:56:30.365Z,35.53
2018-01-23T14:58:57.851Z,37.00
2018-01-23T15:01:25.350Z,32.83
2018-01-23T15:03:52.790Z,35.17
2018-01-23T15:06:20.263Z,36.37
2018-01-23T15:08:47.746Z,38.80
2018-01-23T15:11:15.194Z,34.40
2018-01-23T15:13:42.784Z,34.70
2018-01-23T15:16:10.262Z,34.60
2018-01-23T15:18:38.635Z,37.53
2018-01-23T15:21:06.089Z,35.63
2018-01-23T15:23:33.539Z,40.07
2018-01-23T15:26:00.999Z,31.70
2018-01-23T15:28:28.557Z,42.20
2018-01-23T15:30:56.013Z,41.73
2018-01-23T15:33:23.471Z,42.40
2018-01-23T15:35:51.501Z,40.07
2018-01-23T15:38:18.954Z,36.27
2018-01-23T15:40:46.402Z,38.07
2018-01-23T15:43:13.885Z,37.13
2018-01-23T15:45:41.332Z,42.17
2018-01-23T15:48:08.774Z,37.17
2018-01-23T15:50:36.243Z,39.87
2018-01-23T15:53:03.698Z,41.10
2018-01-23T15:55:31.167Z,41.40
2018-01-23T15:57:58.623Z,40.67
2018-01-23T16:00:26.128Z,42.57
2018-01-23T16:02:53.534Z,38.93
2018-01-23T16:05:21.095Z,34.20
2018-01-23T16:07:48.537Z,35.10
2018-01-23T16:10:16.014Z,38.43
2018-01-23T16:12:43.445Z,37.67
2018-01-23T16:15:10.929Z,34.60
2018-01-23T16:17:38.354Z,40.37
2018-01-23T16:20:05.824Z,38.33
2018-01-23T16:22:33.277Z,34.93
2018-01-23T16:25:00.738Z,34.80
2018-01-23T16:27:28.194Z,40.60
2018-01-23T16:29:55.661Z,40.97
2018-01-23T16:32:23.317Z,36.27
2018-01-23T16:34:50.747Z,33.40
2018-01-23T16:37:18.228Z,31.27
2018-01-23T16:39:45.703Z,34.60
2018-01-23T16:42:13.144Z,29.67
2018-01-23T16:44:40.606Z,36.27
2018-01-23T16:47:08.069Z,36.10
2018-01-23T16:49:35.510Z,37.87
2018-01-23T16:52:02.966Z,28.23
2018-01-23T16:54:30.434Z,35.93
2018-01-23T16:56:57.870Z,29.63
2018-01-23T16:59:25.372Z,32.37
2018-01-23T17:01:52.826Z,30.37
2018-01-23T17:04:20.262Z,35.80
2018-01-23T17:06:47.728Z,34.93
2018-01-23T17:09:15.164Z,31.97
2018-01-23T17:11:43.422Z,36.33
2018-01-23T17:14:10.872Z,36.93
2018-01-23T17:16:39.078Z,33.50
2018-01-23T17:19:06.540Z,31.37
2018-01-23T17:21:33.979Z,36.20
2018-01-23T17:24:01.440Z,35.73
2018-01-23T17:26:28.902Z,29.20
2018-01-23T17:28:56.339Z,34.00
2018-01-23T17:31:23.798Z,33.97
2018-01-23T17:33:51.282Z,34.17
2018-01-23T17:36:18.729Z,33.50
2018-01-23T17:38:46.203Z,34.33
2018-01-23T17:41:13.665Z,35.07
2018-01-23T17:43:41.102Z,38.67
2018-01-23T17:46:08.581Z,33.60
2018-01-23T17:48:36.046Z,37.23
2018-01-23T17:51:03.514Z,36.93
2018-01-23T17:53:30.992Z,40.50
2018-01-23T17:55:58.435Z,40.13
2018-01-23T17:58:25.874Z,42.13
2018-01-23T18:00:54.146Z,41.67
2018-01-23T18:03:21.595Z,41.10
2018-01-23T18:05:49.040Z,45.03
2018-01-23T18:08:16.526Z,35.83
2018-01-23T18:10:43.963Z,45.47
2018-01-23T18:13:12.307Z,43.67
2018-01-23T18:15:39.747Z,35.90
2018-01-23T18:18:07.204Z,44.67
2018-01-23T18:20:34.675Z,37.97
2018-01-23T18:23:02.116Z,37.57
2018-01-23T18:25:30.348Z,44.60
2018-01-23T18:27:57.829Z,40.97
2018-01-23T18:30:26.213Z,32.83
2018-01-23T18:32:53.684Z,42.53
2018-01-23T18:35:22.501Z,40.63
2018-01-23T18:37:49.979Z,38.70
2018-01-23T18:40:17.439Z,46.50
2018-01-23T18:42:45.504Z,54.63
2018-01-23T18:45:12.971Z,39.87
2018-01-23T18:47:41.183Z,39.83
2018-01-23T18:50:08.656Z,36.87
2018-01-23T18:52:36.137Z,41.27
2018-01-23T18:55:03.621Z,47.07
2018-01-23T18:57:31.143Z,46.37
2018-01-23T18:59:58.603Z,40.57
2018-01-23T19:02:26.095Z,42.90
2018-01-23T19:04:53.542Z,33.67
2018-01-23T19:07:21.812Z,32.40
2018-01-23T19:09:50.476Z,40.40
2018-01-23T19:12:17.936Z,40.40
2018-01-23T19:14:46.406Z,46.57
2018-01-23T19:17:14.806Z,40.47
2018-01-23T19:19:43.024Z,45.97
2018-01-23T19:22:11.152Z,35.73
2018-01-23T19:24:42.451Z,38.20
2018-01-23T19:27:10.367Z,39.97
2018-01-23T19:29:39.465Z,35.97
2018-01-23T19:32:08.289Z,40.17
2018-01-23T19:34:36.182Z,47.37
2018-01-23T19:37:05.910Z,38.03
2018-01-23T19:39:33.455Z,39.60
2018-01-23T19:42:01.696Z,46.27
2018-01-23T19:44:29.172Z,39.00
2018-01-23T19:46:57.432Z,44.40
2018-01-23T19:49:25.483Z,43.07
2018-01-23T19:51:53.448Z,38.87
2018-01-23T19:54:20.943Z,41.50
2018-01-23T19:56:48.406Z,31.73
2018-01-23T19:59:16.085Z,37.17
2018-01-23T20:01:44.325Z,32.90
2018-01-23T20:04:12.012Z,37.53
2018-01-23T20:06:39.466Z,35.73
2018-01-23T20:09:08.623Z,34.00
2018-01-23T20:11:38.107Z,40.47
2018-01-23T20:14:06.296Z,38.27
2018-01-23T20:16:33.746Z,39.90
2018-01-23T20:19:02.016Z,52.77
2018-01-23T20:21:31.885Z,44.97
2018-01-23T20:23:59.504Z,43.07
2018-01-23T20:26:27.682Z,34.27
2018-01-23T20:28:59.199Z,45.07
2018-01-23T20:31:28.141Z,53.10
2018-01-23T20:33:55.624Z,36.80
2018-01-23T20:36:23.552Z,48.93
2018-01-23T20:38:52.219Z,40.47
2018-01-23T20:41:19.719Z,43.37
2018-01-23T20:43:47.174Z,37.00
2018-01-23T20:46:14.710Z,40.27
2018-01-23T20:48:42.191Z,38.33
2018-01-23T20:51:10.205Z,39.37
2018-01-23T20:53:37.699Z,39.00
2018-01-23T20:56:05.466Z,32.83
2018-01-23T20:58:32.956Z,36.93
2018-01-23T21:01:00.424Z,36.77
2018-01-23T21:03:28.683Z,41.50
2018-01-23T21:05:56.920Z,33.67
2018-01-23T21:08:25.639Z,41.53
2018-01-23T21:10:53.115Z,39.80
2018-01-23T21:13:22.348Z,40.07
2018-01-23T21:15:49.831Z,41.73
2018-01-23T21:18:18.162Z,44.90
2018-01-23T21:20:46.388Z,42.37
2018-01-23T21:23:15.173Z,38.40
2018-01-23T21:25:42.627Z,47.83
2018-01-23T21:28:10.083Z,49.93
2018-01-23T21:30:38.384Z,43.67
2018-01-23T21:33:06.738Z,50.97
2018-01-23T21:35:34.208Z,54.30
2018-01-23T21:38:01.683Z,52.13
2018-01-23T21:40:29.121Z,50.53
2018-01-23T21:42:56.579Z,51.83
2018-01-23T21:45:24.410Z,52.77
2018-01-23T21:47:51.884Z,53.17
2018-01-23T21:50:19.321Z,56.83
2018-01-23T21:52:47.703Z,43.87
2018-01-23T21:55:15.126Z,41.83
2018-01-23T21:57:43.386Z,46.87
2018-01-23T22:00:10.827Z,43.90
2018-01-23T22:02:38.307Z,41.10
2018-01-23T22:05:06.534Z,44.47
2018-01-23T22:07:33.979Z,49.10
2018-01-23T22:10:01.439Z,48.07
2018-01-23T22:12:28.912Z,41.90
2018-01-23T22:14:56.374Z,40.87
2018-01-23T22:17:23.858Z,40.67
2018-01-23T22:19:51.287Z,40.50
2018-01-23T22:22:18.746Z,37.70
2018-01-23T22:24:46.215Z,36.67
2018-01-23T22:27:13.687Z,36.97
2018-01-23T22:29:41.931Z,38.47
2018-01-23T22:32:09.373Z,38.87
2018-01-23T22:34:37.571Z,35.53
2018-01-23T22:37:05.022Z,38.47
2018-01-23T22:39:32.474Z,35.80
2018-01-23T22:41:59.931Z,32.63
2018-01-23T22:44:27.426Z,41.17
2018-01-23T22:46:54.930Z,35.37
2018-01-23T22:49:22.387Z,40.60
2018-01-23T22:51:49.915Z,37.63
2018-01-23T22:54:19.492Z,35.50
2018-01-23T22:56:46.954Z,36.97
2018-01-23T22:59:14.426Z,35.20
2018-01-23T23:01:42.651Z,42.40
2018-01-23T23:04:10.115Z,37.47
2018-01-23T23:06:37.562Z,39.87
2018-01-23T23:09:05.019Z,40.77
2018-01-23T23:11:32.462Z,42.17
2018-01-23T23:13:59.953Z,38.13
2018-01-23T23:16:27.378Z,40.20
2018-01-23T23:18:54.851Z,39.37
2018-01-23T23:21:22.326Z,41.23
2018-01-23T23:23:49.874Z,38.43
2018-01-23T23:26:17.326Z,38.63
2018-01-23T23:28:44.795Z,42.13
2018-01-23T23:31:12.258Z,40.33
2018-01-23T23:33:39.730Z,41.63
2018-01-23T23:36:07.187Z,40.17
2018-01-23T23:38:34.631Z,43.77
2018-01-23T23:41:02.087Z,41.37
2018-01-23T23:43:29.554Z,43.97
2018-01-23T23:45:57.023Z,43.43
2018-01-23T23:48:24.469Z,41.80
2018-01-23T23:50:51.912Z,41.87
2018-01-23T23:53:19.379Z,38.47
2018-01-23T23:55:46.831Z,40.97
2018-01-23T23:58:14.307Z,41.17
